Time;durP1;ratioP1;P1;durP2;ratioP2;P2;SDS_P1;SDS_P2;PMS_P1;PMS_P2;Temp;Humidity;BMP_temperature;BMP_pressure;BME280_temperature;BME280_humidity;BME280_pressure;Samples;Min_cycle;Max_cycle;Signal;HPM_P1;HPM_P2
2022/01/31 00:02:05;;;;;;;18.83;12.30;;;13.00;69.30;;;;;;5025111;28;20623;-75
2022/01/31 00:04:31;;;;;;;20.15;11.68;;;13.00;69.60;;;;;;5020950;28;20094;-75
2022/01/31 00:06:57;;;;;;;19.85;12.85;;;13.00;69.50;;;;;;5028104;28;20051;-76
2022/01/31 00:09:24;;;;;;;19.85;12.57;;;12.90;70.20;;;;;;5022022;28;20068;-75
2022/01/31 00:12:01;;;;;;;19.00;12.40;;;12.90;69.50;;;;;;5042269;28;20884;-78
2022/01/31 00:16:57;;;;;;;22.85;13.30;;;13.10;69.10;;;;;;5041332;28;20132;-74
2022/01/31 00:19:25;;;;;;;20.38;13.38;;;12.90;69.70;;;;;;5030537;28;20040;-76
2022/01/31 00:21:52;;;;;;;19.55;14.18;;;12.90;69.90;;;;;;5038303;28;20500;-79
2022/01/31 00:24:18;;;;;;;22.25;12.93;;;12.50;70.40;;;;;;5043272;28;20072;-77
2022/01/31 00:26:44;;;;;;;19.67;13.00;;;12.90;69.80;;;;;;5042422;28;20091;-75
2022/01/31 00:29:10;;;;;;;18.77;13.55;;;13.00;69.50;;;;;;5042674;28;20045;-76
2022/01/31 00:31:39;;;;;;;24.15;14.32;;;12.80;69.80;;;;;;5038785;28;20037;-75
2022/01/31 00:34:06;;;;;;;19.90;13.63;;;12.60;70.60;;;;;;5043190;28;20520;-76
2022/01/31 00:36:32;;;;;;;21.00;14.32;;;12.50;70.80;;;;;;5037118;28;20036;-73
2022/01/31 00:38:58;;;;;;;20.20;13.88;;;12.40;71.10;;;;;;5042034;28;20044;-75
2022/01/31 00:41:24;;;;;;;21.33;12.85;;;12.50;71.10;;;;;;5042162;28;20116;-78
2022/01/31 00:44:14;;;;;;;21.33;13.48;;;12.40;71.20;;;;;;5044172;28;20507;-75
2022/01/31 00:46:48;;;;;;;20.50;14.07;;;12.60;71.10;;;;;;5024639;28;20091;-74
2022/01/31 00:49:35;;;;;;;21.27;13.98;;;12.40;71.00;;;;;;5032664;28;20097;-74
2022/01/31 00:52:04;;;;;;;21.27;13.73;;;12.40;71.30;;;;;;5023075;28;20037;-74
2022/01/31 00:54:30;;;;;;;21.10;13.35;;;12.40;71.50;;;;;;5036789;28;20109;-75
2022/01/31 00:56:56;;;;;;;21.55;13.55;;;12.70;71.50;;;;;;5042335;28;20033;-74
2022/01/31 00:59:22;;;;;;;21.55;14.63;;;12.50;71.60;;;;;;5038655;28;20044;-76
2022/01/31 01:01:49;;;;;;;21.65;14.25;;;12.50;71.90;;;;;;5032989;28;20045;-75
2022/01/31 01:04:16;;;;;;;23.27;12.45;;;12.50;71.70;;;;;;5021545;28;20088;-73
2022/01/31 01:06:42;;;;;;;22.20;13.85;;;12.90;71.10;;;;;;5039481;28;20095;-75
2022/01/31 01:09:08;;;;;;;23.38;14.32;;;12.80;71.10;;;;;;5040208;28;20033;-73
2022/01/31 01:11:35;;;;;;;20.00;13.85;;;12.90;70.70;;;;;;5035368;28;20033;-75
2022/01/31 01:14:06;;;;;;;19.35;13.10;;;12.90;70.90;;;;;;5046478;28;20033;-74
2022/01/31 01:16:32;;;;;;;22.88;13.55;;;12.80;71.20;;;;;;5041515;28;20496;-73
2022/01/31 01:18:59;;;;;;;21.48;12.45;;;12.80;71.30;;;;;;5039425;28;20566;-75
2022/01/31 01:21:26;;;;;;;19.65;12.35;;;12.90;71.50;;;;;;5040812;28;20110;-74
2022/01/31 01:23:52;;;;;;;21.83;13.15;;;12.80;72.50;;;;;;5033936;28;20046;-73
2022/01/31 01:26:20;;;;;;;20.67;12.75;;;12.70;72.30;;;;;;5037934;28;20032;-75
2022/01/31 01:28:46;;;;;;;18.67;12.93;;;12.70;72.60;;;;;;5041035;28;20034;-76
2022/01/31 01:31:14;;;;;;;17.85;12.43;;;12.70;72.80;;;;;;5038631;28;20358;-77
2022/01/31 01:33:41;;;;;;;18.10;12.32;;;12.60;73.20;;;;;;5041263;28;20036;-75
2022/01/31 01:36:08;;;;;;;17.52;11.88;;;12.60;73.40;;;;;;5038820;28;20128;-74
2022/01/31 01:38:34;;;;;;;17.92;11.88;;;12.60;73.60;;;;;;5035206;28;20483;-75
2022/01/31 01:41:02;;;;;;;16.45;11.35;;;12.70;73.60;;;;;;5027212;28;20372;-76
2022/01/31 01:43:30;;;;;;;17.70;11.23;;;12.70;73.70;;;;;;5036139;28;20030;-75
2022/01/31 01:45:59;;;;;;;17.33;11.65;;;12.80;73.90;;;;;;5036396;28;20704;-73
2022/01/31 01:48:25;;;;;;;16.33;11.45;;;12.80;74.00;;;;;;5036315;28;20041;-75
2022/01/31 01:50:51;;;;;;;16.23;10.57;;;12.70;74.20;;;;;;5029803;28;20029;-74
2022/01/31 01:53:20;;;;;;;16.92;11.35;;;12.70;74.10;;;;;;5047594;28;20393;-75
2022/01/31 01:55:47;;;;;;;17.55;12.00;;;12.70;74.10;;;;;;5049090;28;20033;-77
2022/01/31 01:58:16;;;;;;;21.05;11.68;;;12.60;74.40;;;;;;5048118;28;20463;-74
2022/01/31 02:00:50;;;;;;;17.63;11.70;;;12.60;74.30;;;;;;5043745;28;20041;-75
2022/01/31 02:03:19;;;;;;;16.75;11.68;;;12.70;74.10;;;;;;5031657;28;20382;-73
2022/01/31 02:05:46;;;;;;;16.52;10.00;;;12.70;74.10;;;;;;5047657;28;20496;-73
2022/01/31 02:08:15;;;;;;;15.13;10.65;;;12.70;74.00;;;;;;5030942;28;20477;-76
2022/01/31 02:10:41;;;;;;;16.88;11.35;;;12.70;73.70;;;;;;5045179;28;20063;-77
2022/01/31 02:13:09;;;;;;;17.77;9.95;;;12.80;73.40;;;;;;5034850;28;20045;-75
2022/01/31 02:15:36;;;;;;;15.30;10.82;;;12.80;73.40;;;;;;5039337;28;20038;-74
2022/01/31 02:18:04;;;;;;;17.25;10.65;;;12.90;73.50;;;;;;5035737;28;20053;-73
2022/01/31 02:20:30;;;;;;;15.60;10.70;;;12.80;73.70;;;;;;5042894;28;20389;-75
2022/01/31 02:22:58;;;;;;;17.23;11.23;;;12.80;73.70;;;;;;5040601;28;20493;-73
2022/01/31 02:25:24;;;;;;;16.83;11.60;;;12.70;73.90;;;;;;5039223;28;20045;-74
2022/01/31 02:27:51;;;;;;;16.98;10.93;;;12.60;74.00;;;;;;5047548;28;20040;-73
2022/01/31 02:30:18;;;;;;;16.20;11.23;;;12.70;73.90;;;;;;5042979;28;20033;-76
2022/01/31 02:32:45;;;;;;;17.15;10.85;;;12.70;73.60;;;;;;5049204;28;20079;-76
2022/01/31 02:35:12;;;;;;;16.58;11.57;;;12.80;74.00;;;;;;5041403;28;20076;-75
2022/01/31 02:37:39;;;;;;;18.00;11.15;;;12.70;73.50;;;;;;5035462;28;20033;-75
2022/01/31 02:40:06;;;;;;;15.50;10.45;;;12.60;73.40;;;;;;5042538;28;20061;-75
2022/01/31 02:42:31;;;;;;;15.40;11.00;;;12.60;73.20;;;;;;5047013;28;20040;-75
2022/01/31 02:44:58;;;;;;;15.57;10.05;;;12.60;72.80;;;;;;5044572;28;20032;-74
2022/01/31 02:47:27;;;;;;;15.75;11.50;;;12.70;72.90;;;;;;5036898;28;20056;-74
2022/01/31 02:50:02;;;;;;;18.60;11.95;;;12.70;72.80;;;;;;5039218;28;20745;-73
2022/01/31 02:52:32;;;;;;;16.48;11.77;;;12.60;73.10;;;;;;5043980;28;20084;-76
2022/01/31 02:54:59;;;;;;;19.15;12.18;;;12.40;73.30;;;;;;5045945;28;20036;-75
2022/01/31 02:57:25;;;;;;;17.80;13.38;;;12.20;74.50;;;;;;5013551;28;20060;-75
2022/01/31 02:59:52;;;;;;;20.08;13.63;;;11.90;75.30;;;;;;5046718;28;20430;-76
2022/01/31 03:02:18;;;;;;;22.20;13.88;;;11.80;75.80;;;;;;5038174;28;20044;-75
2022/01/31 03:04:45;;;;;;;20.92;14.00;;;11.70;76.20;;;;;;5041226;28;20122;-73
2022/01/31 03:07:11;;;;;;;20.77;13.98;;;11.50;76.70;;;;;;5035930;28;20048;-76
2022/01/31 03:09:37;;;;;;;19.55;14.05;;;11.40;77.30;;;;;;5014164;28;20030;-75
2022/01/31 03:12:05;;;;;;;24.35;14.07;;;11.30;77.60;;;;;;5037956;28;20523;-74
2022/01/31 03:14:31;;;;;;;20.63;13.80;;;11.20;78.20;;;;;;5040450;28;20468;-73
2022/01/31 03:16:57;;;;;;;22.42;14.43;;;11.10;78.10;;;;;;5047025;28;20040;-74
2022/01/31 03:19:23;;;;;;;20.77;14.05;;;11.00;78.30;;;;;;5040072;28;20037;-76
2022/01/31 03:21:52;;;;;;;24.67;14.15;;;10.90;78.80;;;;;;5039672;28;20045;-74
2022/01/31 03:24:19;;;;;;;25.08;15.38;;;10.90;79.40;;;;;;5039101;28;20038;-75
2022/01/31 03:26:46;;;;;;;21.05;14.60;;;10.90;79.40;;;;;;5042317;28;20049;-74
2022/01/31 03:29:12;;;;;;;23.80;14.90;;;10.80;79.30;;;;;;5018374;28;20139;-74
2022/01/31 03:31:38;;;;;;;20.95;14.90;;;10.50;79.40;;;;;;5031639;28;20045;-74
2022/01/31 03:34:05;;;;;;;24.75;13.98;;;10.60;80.20;;;;;;5041723;28;20045;-73
2022/01/31 03:36:31;;;;;;;24.25;14.82;;;10.70;80.20;;;;;;5033866;28;20385;-77
2022/01/31 03:38:58;;;;;;;22.42;14.32;;;10.70;79.70;;;;;;5044356;28;20147;-73
2022/01/31 03:41:26;;;;;;;22.63;14.20;;;10.90;79.60;;;;;;5035689;28;20120;-74
2022/01/31 03:43:59;;;;;;;19.75;13.50;;;10.90;79.70;;;;;;5040448;28;20122;-73
2022/01/31 03:46:26;;;;;;;21.65;13.10;;;10.90;79.70;;;;;;5038178;28;20465;-75
2022/01/31 03:48:52;;;;;;;22.17;11.38;;;11.10;79.10;;;;;;5040343;28;20457;-77
2022/01/31 03:51:18;;;;;;;17.25;11.55;;;11.50;77.70;;;;;;5027467;28;20045;-74
2022/01/31 03:53:46;;;;;;;16.55;10.85;;;11.60;77.50;;;;;;5039548;28;20041;-73
2022/01/31 03:56:12;;;;;;;15.68;10.55;;;11.90;76.90;;;;;;5026515;28;20025;-73
2022/01/31 03:58:38;;;;;;;15.82;11.00;;;11.90;76.80;;;;;;5031882;28;20515;-73
2022/01/31 04:01:04;;;;;;;17.17;11.05;;;11.80;77.00;;;;;;5041885;28;20045;-72
2022/01/31 04:03:30;;;;;;;17.65;9.57;;;11.90;76.80;;;;;;5041315;28;20030;-75
2022/01/31 04:05:57;;;;;;;16.40;10.43;;;12.00;76.70;;;;;;5042534;28;20067;-74
2022/01/31 04:08:24;;;;;;;14.75;10.38;;;12.00;76.70;;;;;;5038325;28;20043;-74
2022/01/31 04:10:51;;;;;;;15.35;9.75;;;11.90;76.80;;;;;;5040047;28;20037;-76
2022/01/31 04:13:18;;;;;;;15.57;10.05;;;11.90;76.60;;;;;;5037281;28;20063;-74
2022/01/31 04:15:47;;;;;;;14.43;9.73;;;11.90;76.20;;;;;;5023949;28;20048;-75
2022/01/31 04:18:14;;;;;;;14.18;9.45;;;11.90;76.40;;;;;;5038756;28;20083;-74
2022/01/31 04:20:41;;;;;;;17.20;11.02;;;11.90;76.70;;;;;;5034303;28;20045;-74
2022/01/31 04:23:11;;;;;;;14.32;10.57;;;11.70;76.90;;;;;;5037196;28;20048;-77
2022/01/31 04:28:29;;;;;;;16.48;9.93;;;11.70;77.20;;;;;;5034753;28;20055;-74
2022/01/31 04:30:58;;;;;;;15.88;10.60;;;11.80;76.80;;;;;;5044884;28;20037;-72
2022/01/31 04:33:27;;;;;;;14.77;9.90;;;11.70;77.20;;;;;;5019369;28;20068;-74
2022/01/31 04:35:55;;;;;;;15.57;10.40;;;11.60;77.70;;;;;;5005638;28;20034;-74
2022/01/31 04:38:23;;;;;;;15.07;10.13;;;11.60;77.80;;;;;;5037781;28;20461;-75
2022/01/31 04:40:50;;;;;;;17.63;10.73;;;11.50;78.00;;;;;;5038061;28;20044;-76
2022/01/31 04:43:17;;;;;;;19.15;10.25;;;11.50;78.20;;;;;;5035964;28;20098;-74
2022/01/31 04:45:48;;;;;;;16.02;10.63;;;11.50;78.30;;;;;;5042697;28;20043;-76
2022/01/31 04:48:18;;;;;;;18.25;11.23;;;11.50;78.50;;;;;;5041401;28;20040;-74
2022/01/31 04:50:45;;;;;;;17.40;10.52;;;11.30;78.80;;;;;;5034872;28;20489;-74
2022/01/31 04:53:13;;;;;;;17.52;11.20;;;11.20;79.10;;;;;;5032321;28;20056;-76
2022/01/31 04:55:39;;;;;;;17.33;11.15;;;11.10;79.50;;;;;;5041103;28;20539;-73
2022/01/31 04:58:06;;;;;;;14.30;10.13;;;11.10;79.60;;;;;;5040576;28;20095;-77
2022/01/31 05:00:34;;;;;;;16.73;10.55;;;11.10;79.70;;;;;;5045735;28;20472;-72
2022/01/31 05:03:04;;;;;;;15.75;10.00;;;11.10;79.80;;;;;;5045567;28;20029;-76
2022/01/31 05:05:30;;;;;;;16.65;11.77;;;11.10;79.90;;;;;;5039933;28;20046;-73
2022/01/31 05:07:56;;;;;;;18.10;9.95;;;11.10;79.90;;;;;;5041664;28;20547;-73
2022/01/31 05:10:22;;;;;;;16.88;9.82;;;11.10;79.80;;;;;;5041194;28;20124;-74
2022/01/31 05:12:48;;;;;;;14.60;10.43;;;11.20;79.50;;;;;;5048148;28;20037;-74
2022/01/31 05:15:15;;;;;;;16.38;11.15;;;11.20;79.90;;;;;;5033731;28;20048;-73
2022/01/31 05:17:42;;;;;;;16.48;10.45;;;11.20;79.20;;;;;;5035686;28;20097;-74
2022/01/31 05:20:09;;;;;;;19.50;11.00;;;11.20;79.20;;;;;;5031089;28;20049;-73
2022/01/31 05:22:36;;;;;;;16.23;10.05;;;11.20;79.10;;;;;;5042012;28;20034;-73
2022/01/31 05:25:02;;;;;;;16.95;11.05;;;11.10;79.20;;;;;;5033226;28;20493;-76
2022/01/31 05:27:29;;;;;;;16.67;11.02;;;11.00;79.50;;;;;;5044487;28;20174;-72
2022/01/31 05:29:56;;;;;;;16.08;10.30;;;10.90;79.70;;;;;;5040700;28;20040;-77
2022/01/31 05:32:22;;;;;;;17.88;10.00;;;10.90;80.00;;;;;;5046589;28;20045;-74
2022/01/31 05:34:49;;;;;;;16.60;10.60;;;11.00;79.80;;;;;;5038210;28;20041;-75
2022/01/31 05:37:15;;;;;;;15.52;10.18;;;11.00;79.70;;;;;;5039095;28;20126;-74
2022/01/31 05:39:43;;;;;;;15.55;9.85;;;11.10;79.70;;;;;;5042197;28;20040;-73
2022/01/31 05:42:10;;;;;;;18.45;10.82;;;11.00;79.70;;;;;;5042981;28;20065;-75
2022/01/31 05:44:36;;;;;;;15.25;10.20;;;11.10;79.80;;;;;;5040523;28;20033;-75
2022/01/31 05:47:03;;;;;;;17.77;11.35;;;11.00;79.90;;;;;;5040032;28;20083;-74
2022/01/31 05:49:29;;;;;;;16.73;10.93;;;10.90;80.30;;;;;;5043606;28;20044;-74
2022/01/31 05:52:02;;;;;;;17.90;10.68;;;10.90;80.10;;;;;;5046390;28;20564;-73
2022/01/31 05:54:29;;;;;;;;;;;10.80;80.50;;;;;;5040454;28;20084;-73
2022/01/31 05:56:59;;;;;;;16.65;10.35;;;10.60;81.30;;;;;;5040731;28;19944;-76
2022/01/31 05:59:26;;;;;;;15.15;10.20;;;10.50;81.50;;;;;;5042152;28;20975;-74
2022/01/31 06:01:56;;;;;;;15.80;11.00;;;10.50;81.10;;;;;;5017925;28;20075;-76
2022/01/31 06:04:22;;;;;;;15.88;11.25;;;10.50;81.60;;;;;;5044759;28;20051;-76
2022/01/31 06:06:48;;;;;;;17.38;10.93;;;10.50;81.80;;;;;;5047575;28;20116;-76
2022/01/31 06:09:15;;;;;;;18.20;10.88;;;10.40;82.00;;;;;;5039999;28;20041;-74
2022/01/31 06:11:41;;;;;;;19.38;11.15;;;10.40;81.70;;;;;;5048505;28;20040;-75
2022/01/31 06:14:10;;;;;;;20.42;11.57;;;10.50;81.50;;;;;;5045802;28;20041;-72
2022/01/31 06:16:39;;;;;;;19.92;11.15;;;10.70;81.40;;;;;;5049317;28;20462;-73
2022/01/31 06:19:07;;;;;;;19.27;11.65;;;10.60;81.90;;;;;;5043899;28;20042;-75
2022/01/31 06:21:34;;;;;;;18.48;11.90;;;10.60;82.10;;;;;;5045529;28;20041;-72
2022/01/31 06:24:01;;;;;;;17.08;11.05;;;10.50;82.40;;;;;;5046790;28;20040;-76
2022/01/31 06:26:29;;;;;;;18.92;11.82;;;10.40;82.90;;;;;;5043894;28;20044;-78
2022/01/31 06:28:55;;;;;;;16.55;11.40;;;10.20;83.30;;;;;;5047980;28;20033;-75
2022/01/31 06:31:23;;;;;;;19.58;11.77;;;10.00;83.90;;;;;;5046063;28;20060;-77
2022/01/31 06:33:49;;;;;;;16.92;11.32;;;9.90;84.20;;;;;;5042277;28;20128;-77
2022/01/31 06:36:16;;;;;;;15.35;11.35;;;9.80;84.80;;;;;;5043648;28;20381;-76
2022/01/31 06:38:45;;;;;;;18.08;11.70;;;9.90;84.50;;;;;;5043947;28;20025;-74
2022/01/31 06:41:13;;;;;;;19.38;12.07;;;10.20;83.80;;;;;;5045940;28;20041;-74
2022/01/31 06:43:41;;;;;;;19.15;11.98;;;10.20;84.10;;;;;;5041248;28;20040;-75
2022/01/31 06:46:07;;;;;;;18.50;11.57;;;10.10;84.10;;;;;;5037720;28;20065;-75
2022/01/31 06:48:34;;;;;;;18.42;11.85;;;10.10;84.50;;;;;;5047454;28;20468;-74
2022/01/31 06:51:01;;;;;;;16.80;10.82;;;10.20;84.40;;;;;;5040330;28;20033;-76
2022/01/31 06:53:29;;;;;;;15.75;10.88;;;10.40;83.70;;;;;;5043811;28;20042;-75
2022/01/31 06:55:55;;;;;;;17.52;11.07;;;10.50;83.40;;;;;;5050285;28;20115;-76
2022/01/31 06:58:22;;;;;;;17.27;11.35;;;10.40;83.40;;;;;;5019462;28;20047;-75
2022/01/31 07:00:48;;;;;;;18.23;10.88;;;10.50;83.80;;;;;;5041846;28;20069;-75
2022/01/31 07:03:16;;;;;;;19.08;11.63;;;10.30;84.20;;;;;;5037029;28;20033;-75
2022/01/31 07:05:46;;;;;;;16.92;11.07;;;10.10;84.70;;;;;;5044856;28;20064;-76
2022/01/31 07:08:13;;;;;;;19.48;11.43;;;10.10;85.40;;;;;;5044710;28;20113;-78
2022/01/31 07:10:41;;;;;;;17.92;9.55;;;10.20;85.20;;;;;;5043791;28;20110;-73
2022/01/31 07:14:01;;;;;;;19.80;9.60;;;10.10;85.40;;;;;;5041779;28;20041;-75
2022/01/31 07:15:53;;;;;;;16.23;10.30;;;10.20;85.30;;;;;;5034817;28;20033;-74
2022/01/31 07:18:20;;;;;;;18.92;11.15;;;10.10;85.50;;;;;;5037956;28;20038;-75
2022/01/31 07:20:50;;;;;;;15.20;10.35;;;9.90;86.10;;;;;;5043179;28;20040;-77
2022/01/31 07:23:23;;;;;;;16.85;10.10;;;9.80;86.60;;;;;;5039888;28;20033;-74
2022/01/31 07:25:49;;;;;;;16.75;10.70;;;9.80;86.60;;;;;;5031882;28;20574;-75
2022/01/31 07:28:16;;;;;;;17.17;11.15;;;9.80;86.70;;;;;;5025748;28;20084;-73
2022/01/31 07:30:48;;;;;;;16.92;11.00;;;9.70;87.10;;;;;;5041327;28;20475;-75
2022/01/31 07:33:15;;;;;;;14.95;10.52;;;9.70;87.20;;;;;;5041701;28;20556;-75
2022/01/31 07:35:44;;;;;;;18.40;11.77;;;9.70;87.50;;;;;;5038509;28;20128;-78
2022/01/31 07:38:13;;;;;;;18.02;11.18;;;9.70;87.30;;;;;;5026616;28;20052;-74
2022/01/31 07:40:40;;;;;;;16.95;11.30;;;9.90;86.70;;;;;;5033054;28;20045;-76
2022/01/31 07:43:07;;;;;;;17.15;11.93;;;10.10;86.20;;;;;;5034065;28;20098;-74
2022/01/31 07:45:34;;;;;;;19.85;11.50;;;10.30;86.00;;;;;;5044156;28;20034;-78
2022/01/31 07:48:01;;;;;;;16.73;11.27;;;10.30;85.80;;;;;;5042107;28;20172;-75
2022/01/31 07:50:30;;;;;;;18.95;11.15;;;10.30;85.70;;;;;;5042485;28;20044;-76
2022/01/31 07:52:57;;;;;;;19.88;11.82;;;10.30;85.80;;;;;;5037393;28;20041;-75
2022/01/31 07:55:25;;;;;;;17.30;10.57;;;10.20;85.90;;;;;;5046861;28;20469;-75
2022/01/31 07:57:51;;;;;;;18.20;10.32;;;10.20;86.10;;;;;;5038213;28;20076;-79
2022/01/31 08:00:18;;;;;;;15.70;10.75;;;10.20;86.40;;;;;;5041818;28;20041;-75
2022/01/31 08:02:44;;;;;;;17.67;10.68;;;10.30;86.40;;;;;;5030029;28;20045;-75
2022/01/31 08:05:10;;;;;;;15.15;10.60;;;10.20;86.20;;;;;;5035697;28;20044;-77
2022/01/31 08:07:40;;;;;;;17.70;11.50;;;10.30;86.10;;;;;;5039021;28;20064;-74
2022/01/31 08:10:07;;;;;;;18.30;11.80;;;10.30;86.10;;;;;;5033230;28;20045;-74
2022/01/31 08:12:36;;;;;;;18.48;12.18;;;10.30;86.10;;;;;;5038551;28;20166;-76
2022/01/31 08:15:07;;;;;;;22.65;12.63;;;10.20;87.00;;;;;;5029594;28;20034;-73
2022/01/31 08:17:33;;;;;;;21.25;12.55;;;10.20;86.40;;;;;;5027713;28;20421;-78
2022/01/31 08:20:01;;;;;;;22.20;12.93;;;10.20;86.30;;;;;;5022721;28;20162;-73
2022/01/31 08:22:26;;;;;;;24.50;13.43;;;10.30;85.90;;;;;;5027259;28;20045;-75
2022/01/31 08:24:53;;;;;;;20.95;14.60;;;10.40;85.70;;;;;;5018477;28;20041;-77
2022/01/31 08:27:19;;;;;;;24.48;14.13;;;10.40;85.10;;;;;;5014405;28;20079;-74
2022/01/31 08:29:45;;;;;;;21.55;15.13;;;10.50;85.20;;;;;;5014092;28;20046;-74
2022/01/31 08:32:21;;;;;;;21.08;15.27;;;10.50;85.00;;;;;;5001391;28;20044;-73
2022/01/31 08:37:34;;;;;;;24.63;14.77;;;12.50;81.90;;;;;;5010447;28;20052;-77
2022/01/31 08:40:01;;;;;;;21.80;15.25;;;13.70;78.80;;;;;;5021608;28;20124;-74
2022/01/31 08:42:28;;;;;;;26.13;15.13;;;14.50;76.80;;;;;;5021708;28;20036;-74
2022/01/31 08:44:55;;;;;;;21.27;15.25;;;14.90;75.80;;;;;;5022598;28;20039;-75
2022/01/31 08:47:22;;;;;;;19.60;15.25;;;15.30;75.80;;;;;;5023868;28;20034;-74
2022/01/31 08:49:49;;;;;;;19.90;14.57;;;15.80;74.70;;;;;;5020393;28;20033;-76
2022/01/31 08:52:15;;;;;;;21.77;14.15;;;16.20;73.90;;;;;;5025071;28;20057;-75
2022/01/31 08:54:41;;;;;;;23.02;14.63;;;16.30;72.70;;;;;;5011439;28;20437;-75
2022/01/31 08:57:09;;;;;;;18.45;14.15;;;16.30;72.10;;;;;;5027326;28;20072;-77
2022/01/31 08:59:43;;;;;;;19.50;14.00;;;16.40;72.10;;;;;;5025436;28;20037;-75
2022/01/31 09:02:14;;;;;;;21.38;14.32;;;16.70;71.20;;;;;;5006224;28;20041;-74
2022/01/31 09:04:49;;;;;;;19.25;14.60;;;17.40;71.10;;;;;;5024466;28;20049;-76
2022/01/31 09:07:21;;;;;;;20.77;13.90;;;17.30;70.50;;;;;;5024009;28;20623;-75
2022/01/31 09:09:52;;;;;;;18.52;13.70;;;17.40;71.50;;;;;;5008485;28;20171;-74
2022/01/31 09:12:19;;;;;;;24.88;14.68;;;17.80;71.60;;;;;;4990855;28;20074;-77
2022/01/31 09:14:46;;;;;;;21.65;14.20;;;17.90;70.30;;;;;;5009125;28;20124;-74
2022/01/31 09:17:12;;;;;;;20.92;14.10;;;18.00;70.90;;;;;;5027514;28;20060;-74
2022/01/31 09:19:38;;;;;;;18.85;13.68;;;17.70;71.50;;;;;;5031839;28;20029;-76
2022/01/31 09:22:04;;;;;;;18.55;14.10;;;17.30;71.60;;;;;;5025796;28;20086;-74
2022/01/31 09:24:30;;;;;;;19.42;13.10;;;16.80;72.70;;;;;;4974521;28;1592799;-75
2022/01/31 09:26:57;;;;;;;17.13;12.98;;;16.20;73.70;;;;;;5022179;28;20500;-74
2022/01/31 09:29:24;;;;;;;20.23;12.40;;;15.90;76.20;;;;;;5014356;28;20091;-74
2022/01/31 09:31:50;;;;;;;18.75;13.32;;;16.20;77.30;;;;;;5027065;28;20041;-76
2022/01/31 09:34:19;;;;;;;17.77;13.25;;;16.20;78.00;;;;;;5017321;28;20064;-76
2022/01/31 09:36:45;;;;;;;19.23;14.18;;;16.00;78.40;;;;;;5035349;28;20030;-76
2022/01/31 09:39:11;;;;;;;20.67;13.23;;;15.70;79.60;;;;;;5030811;28;20033;-74
2022/01/31 09:41:41;;;;;;;18.52;13.43;;;15.20;81.30;;;;;;5024129;28;20070;-74
2022/01/31 09:49:09;;;;;;;15.85;12.45;;;15.20;79.40;;;;;;5037833;28;20076;-73
2022/01/31 09:51:35;;;;;;;19.00;12.80;;;15.20;78.80;;;;;;5039977;28;20068;-75
2022/01/31 09:54:04;;;;;;;18.95;12.27;;;15.60;78.20;;;;;;5035017;28;20120;-76
2022/01/31 09:56:37;;;;;;;19.10;12.50;;;15.70;79.30;;;;;;5031204;28;20036;-77
2022/01/31 09:59:10;;;;;;;18.85;12.55;;;15.90;78.70;;;;;;5036165;28;20104;-77
2022/01/31 10:01:43;;;;;;;;;;;15.90;78.80;;;;;;5041545;28;20051;-73
2022/01/31 10:04:19;;;;;;;16.77;12.65;;;16.10;79.40;;;;;;5035048;28;19990;-73
2022/01/31 10:06:57;;;;;;;16.90;12.30;;;16.20;79.00;;;;;;5040055;28;20033;-77
2022/01/31 10:09:31;;;;;;;18.08;13.38;;;16.40;77.80;;;;;;5034270;28;20052;-79
2022/01/31 10:17:33;;;;;;;15.95;12.05;;;16.10;77.10;;;;;;5024779;28;20103;-75
2022/01/31 10:20:06;;;;;;;17.63;11.95;;;15.80;78.80;;;;;;5026827;28;20029;-75
2022/01/31 10:22:35;;;;;;;19.80;11.65;;;15.60;80.40;;;;;;5028012;28;20591;-76
2022/01/31 10:25:07;;;;;;;15.52;11.30;;;16.10;80.90;;;;;;5047248;28;20045;-73
2022/01/31 10:27:36;;;;;;;19.02;11.23;;;17.00;80.90;;;;;;5026422;28;20045;-74
2022/01/31 10:30:11;;;;;;;20.20;12.10;;;17.40;80.40;;;;;;5027704;28;20025;-74
2022/01/31 10:32:42;;;;;;;19.15;11.48;;;17.70;79.50;;;;;;5010393;28;20688;-75
2022/01/31 10:35:11;;;;;;;20.90;11.18;;;18.20;79.50;;;;;;5019970;28;20710;-76
2022/01/31 10:37:42;;;;;;;18.58;11.27;;;18.60;79.80;;;;;;5022370;28;20044;-75
2022/01/31 10:54:08;;;;;;;15.93;11.55;;;19.70;80.30;;;;;;5030135;28;20481;-73
2022/01/31 10:56:37;;;;;;;17.42;10.98;;;19.90;79.00;;;;;;5021755;28;20132;-74
2022/01/31 10:59:11;;;;;;;15.95;10.57;;;19.40;79.30;;;;;;5035763;28;20120;-75
2022/01/31 11:01:38;;;;;;;16.35;10.32;;;19.20;80.10;;;;;;5014416;28;20037;-77
2022/01/31 11:04:10;;;;;;;16.25;10.50;;;19.30;80.70;;;;;;5026482;28;20029;-76
2022/01/31 11:06:39;;;;;;;18.15;10.63;;;19.50;81.00;;;;;;5029449;28;20116;-77
2022/01/31 11:09:17;;;;;;;17.88;10.90;;;19.70;80.30;;;;;;5020116;28;20574;-73
2022/01/31 11:11:46;;;;;;;19.63;10.13;;;20.00;79.40;;;;;;5026803;28;20377;-76
2022/01/31 11:14:13;;;;;;;14.98;8.02;;;20.60;80.00;;;;;;5023310;28;20128;-75
2022/01/31 11:16:42;;;;;;;13.98;7.75;;;20.90;81.20;;;;;;5026616;28;20037;-74
2022/01/31 11:19:10;;;;;;;17.70;7.50;;;21.30;81.00;;;;;;5020746;28;20743;-75
2022/01/31 11:21:44;;;;;;;15.68;8.60;;;21.50;80.60;;;;;;5033211;28;20040;-77
2022/01/31 11:24:21;;;;;;;14.63;8.57;;;21.00;79.90;;;;;;5023353;28;20046;-79
2022/01/31 11:26:54;;;;;;;10.27;7.15;;;21.30;79.40;;;;;;5026257;28;20021;-74
2022/01/31 11:29:20;;;;;;;15.13;7.22;;;20.60;80.80;;;;;;5036916;28;20140;-74
2022/01/31 11:31:48;;;;;;;15.48;7.00;;;20.30;81.60;;;;;;5020753;28;20060;-75
2022/01/31 11:34:15;;;;;;;15.48;6.97;;;20.10;82.60;;;;;;5029195;28;20033;-74
2022/01/31 11:36:42;;;;;;;11.00;7.20;;;19.90;83.00;;;;;;5021207;28;20122;-76
2022/01/31 11:39:12;;;;;;;19.20;7.75;;;20.40;82.50;;;;;;5026906;28;20049;-76
2022/01/31 11:41:44;;;;;;;16.63;7.32;;;20.20;82.50;;;;;;5028091;28;20373;-73
2022/01/31 11:44:49;;;;;;;16.15;7.85;;;20.30;83.20;;;;;;5011867;28;20037;-77
2022/01/31 11:47:23;;;;;;;16.05;7.63;;;21.10;82.30;;;;;;5044835;28;20694;-76
2022/01/31 11:49:59;;;;;;;12.85;8.48;;;21.50;81.10;;;;;;5026238;28;20522;-76
2022/01/31 11:52:32;;;;;;;15.32;7.82;;;21.00;81.80;;;;;;5028971;28;21097;-75
2022/01/31 11:55:04;;;;;;;11.05;6.65;;;21.30;81.80;;;;;;5014511;28;20037;-74
2022/01/31 11:57:34;;;;;;;18.33;7.07;;;21.00;83.30;;;;;;5017899;28;20056;-76
2022/01/31 12:00:07;;;;;;;15.20;6.38;;;20.70;84.80;;;;;;5025693;28;20041;-75
2022/01/31 12:02:49;;;;;;;13.32;5.93;;;21.10;84.90;;;;;;5044725;28;20040;-77
2022/01/31 12:05:18;;;;;;;;;;;21.00;84.40;;;;;;5038438;28;20048;-76
2022/01/31 12:07:46;;;;;;;19.23;7.30;;;21.20;83.90;;;;;;5012903;28;20342;-74
2022/01/31 12:10:23;;;;;;;16.70;6.45;;;21.70;83.40;;;;;;5030257;28;20045;-75
2022/01/31 12:12:55;;;;;;;16.65;7.13;;;21.70;82.60;;;;;;5030347;28;20443;-78
2022/01/31 12:24:10;;;;;;;14.93;6.22;;;22.20;83.20;;;;;;5027354;28;20094;-77
2022/01/31 12:27:12;;;;;;;16.77;6.82;;;22.70;82.30;;;;;;5013775;28;20033;-76
2022/01/31 12:29:56;;;;;;;15.67;5.40;;;23.10;82.00;;;;;;5028117;28;20519;-75
2022/01/31 12:32:37;;;;;;;18.95;4.97;;;22.50;83.00;;;;;;5039190;28;20237;-75
2022/01/31 12:35:11;;;;;;;13.07;5.20;;;23.60;82.30;;;;;;5032651;28;20486;-76
2022/01/31 12:37:51;;;;;;;10.93;5.05;;;23.50;81.70;;;;;;5043490;28;20040;-75
2022/01/31 12:40:29;;;;;;;11.95;4.85;;;23.50;81.90;;;;;;5038880;28;20115;-77
2022/01/31 12:45:53;;;;;;;17.23;5.77;;;24.60;81.50;;;;;;5033039;28;20033;-76
2022/01/31 12:48:22;;;;;;;16.95;5.78;;;25.00;80.50;;;;;;5033314;28;20147;-76
2022/01/31 12:50:51;;;;;;;18.63;6.03;;;25.10;80.30;;;;;;5042819;28;20408;-74
2022/01/31 12:53:35;;;;;;;14.93;5.47;;;25.30;80.10;;;;;;5043333;28;20051;-77
2022/01/31 12:56:35;;;;;;;14.68;5.30;;;25.50;79.20;;;;;;5029729;28;20026;-78
2022/01/31 12:59:04;;;;;;;16.35;5.18;;;25.60;78.80;;;;;;5040193;28;20051;-78
2022/01/31 13:01:35;;;;;;;13.30;4.88;;;25.60;78.30;;;;;;5040857;28;20033;-76
2022/01/31 13:04:06;;;;;;;13.18;6.47;;;25.60;78.10;;;;;;5041480;28;20033;-75
2022/01/31 13:07:09;;;;;;;17.67;7.53;;;25.20;77.40;;;;;;5030986;28;20037;-77
2022/01/31 13:09:38;;;;;;;17.58;6.93;;;25.20;77.40;;;;;;5038767;28;20564;-75
2022/01/31 13:12:11;;;;;;;13.30;6.45;;;22.70;80.40;;;;;;5039656;28;20103;-76
2022/01/31 13:14:45;;;;;;;17.60;5.75;;;21.70;82.70;;;;;;5044644;28;20045;-76
2022/01/31 13:17:18;;;;;;;19.27;6.35;;;20.90;84.80;;;;;;5047717;28;20036;-74
2022/01/31 13:20:48;;;;;;;16.67;6.82;;;21.50;85.10;;;;;;5037463;28;20051;-75
2022/01/31 13:23:14;;;;;;;16.27;7.35;;;23.90;80.70;;;;;;5021876;28;20052;-76
2022/01/31 13:25:41;;;;;;;16.98;7.47;;;24.50;79.40;;;;;;5031049;28;20064;-78